sensor_id;sensor_type;location;lat;lon;timestamp;P1;durP1;ratioP1;P2;durP2;ratioP2
45909;SDS011;31622;55.416;37.840;2022-07-12T00:00:44;2.40;;;1.65;;
45909;SDS011;31622;55.416;37.840;2022-07-12T00:03:10;2.63;;;2.10;;
45909;SDS011;31622;55.416;37.840;2022-07-12T00:05:36;4.78;;;1.90;;
45909;SDS011;31622;55.416;37.840;2022-07-12T00:08:02;4.30;;;2.30;;
45909;SDS011;31622;55.416;37.840;2022-07-12T00:10:28;2.75;;;1.83;;
45909;SDS011;31622;55.416;37.840;2022-07-12T00:12:53;2.65;;;1.95;;
45909;SDS011;31622;55.416;37.840;2022-07-12T00:15:19;4.35;;;2.08;;
45909;SDS011;31622;55.416;37.840;2022-07-12T00:17:46;2.92;;;2.00;;
45909;SDS011;31622;55.416;37.840;2022-07-12T00:20:11;3.63;;;2.53;;
45909;SDS011;31622;55.416;37.840;2022-07-12T00:22:37;3.42;;;2.17;;
45909;SDS011;31622;55.416;37.840;2022-07-12T00:25:03;3.70;;;2.03;;
45909;SDS011;31622;55.416;37.840;2022-07-12T00:27:29;5.25;;;2.30;;
45909;SDS011;31622;55.416;37.840;2022-07-12T00:29:54;4.40;;;2.28;;
45909;SDS011;31622;55.416;37.840;2022-07-12T00:32:20;3.83;;;2.13;;
45909;SDS011;31622;55.416;37.840;2022-07-12T00:34:46;4.43;;;1.95;;
45909;SDS011;31622;55.416;37.840;2022-07-12T00:37:11;3.38;;;1.80;;
45909;SDS011;31622;55.416;37.840;2022-07-12T00:39:37;7.50;;;2.35;;
45909;SDS011;31622;55.416;37.840;2022-07-12T00:42:03;3.35;;;2.25;;
45909;SDS011;31622;55.416;37.840;2022-07-12T00:44:29;3.83;;;1.95;;
45909;SDS011;31622;55.416;37.840;2022-07-12T00:46:59;2.47;;;2.05;;
45909;SDS011;31622;55.416;37.840;2022-07-12T00:49:25;4.07;;;2.10;;
45909;SDS011;31622;55.416;37.840;2022-07-12T00:51:51;3.97;;;2.15;;
45909;SDS011;31622;55.416;37.840;2022-07-12T00:54:16;2.60;;;2.00;;
45909;SDS011;31622;55.416;37.840;2022-07-12T00:56:43;5.18;;;1.70;;
45909;SDS011;31622;55.416;37.840;2022-07-12T00:59:09;2.50;;;1.88;;
45909;SDS011;31622;55.416;37.840;2022-07-12T01:01:36;5.00;;;2.67;;
45909;SDS011;31622;55.416;37.840;2022-07-12T01:04:02;3.38;;;1.85;;
45909;SDS011;31622;55.416;37.840;2022-07-12T01:06:27;5.13;;;1.95;;
45909;SDS011;31622;55.416;37.840;2022-07-12T01:08:55;3.80;;;2.05;;
45909;SDS011;31622;55.416;37.840;2022-07-12T01:11:21;3.45;;;1.90;;
45909;SDS011;31622;55.416;37.840;2022-07-12T01:13:47;3.47;;;2.20;;
45909;SDS011;31622;55.416;37.840;2022-07-12T01:16:14;3.78;;;2.05;;
45909;SDS011;31622;55.416;37.840;2022-07-12T01:18:40;2.80;;;2.13;;
45909;SDS011;31622;55.416;37.840;2022-07-12T01:21:07;4.15;;;2.17;;
45909;SDS011;31622;55.416;37.840;2022-07-12T01:23:33;4.05;;;2.28;;
45909;SDS011;31622;55.416;37.840;2022-07-12T01:26:00;4.53;;;1.98;;
45909;SDS011;31622;55.416;37.840;2022-07-12T01:28:26;9.05;;;2.30;;
45909;SDS011;31622;55.416;37.840;2022-07-12T01:30:52;3.40;;;2.08;;
45909;SDS011;31622;55.416;37.840;2022-07-12T01:33:17;6.13;;;2.30;;
45909;SDS011;31622;55.416;37.840;2022-07-12T01:35:43;6.03;;;2.40;;
45909;SDS011;31622;55.416;37.840;2022-07-12T01:38:11;3.97;;;2.35;;
45909;SDS011;31622;55.416;37.840;2022-07-12T01:40:36;7.63;;;2.60;;
45909;SDS011;31622;55.416;37.840;2022-07-12T01:43:02;3.80;;;2.47;;
45909;SDS011;31622;55.416;37.840;2022-07-12T01:45:28;3.90;;;2.25;;
45909;SDS011;31622;55.416;37.840;2022-07-12T01:47:53;4.85;;;2.70;;
45909;SDS011;31622;55.416;37.840;2022-07-12T01:50:19;4.03;;;2.70;;
45909;SDS011;31622;55.416;37.840;2022-07-12T01:52:45;7.43;;;2.30;;
45909;SDS011;31622;55.416;37.840;2022-07-12T01:55:11;5.93;;;2.45;;
45909;SDS011;31622;55.416;37.840;2022-07-12T01:57:42;5.85;;;2.28;;
45909;SDS011;31622;55.416;37.840;2022-07-12T02:00:09;4.30;;;2.53;;
45909;SDS011;31622;55.416;37.840;2022-07-12T02:02:36;4.05;;;2.80;;
45909;SDS011;31622;55.416;37.840;2022-07-12T02:05:03;3.78;;;2.60;;
45909;SDS011;31622;55.416;37.840;2022-07-12T02:07:29;3.63;;;2.50;;
45909;SDS011;31622;55.416;37.840;2022-07-12T02:09:55;3.75;;;2.60;;
45909;SDS011;31622;55.416;37.840;2022-07-12T02:12:21;4.82;;;2.75;;
45909;SDS011;31622;55.416;37.840;2022-07-12T02:14:47;4.88;;;2.70;;
45909;SDS011;31622;55.416;37.840;2022-07-12T02:17:12;6.35;;;3.05;;
45909;SDS011;31622;55.416;37.840;2022-07-12T02:19:38;6.20;;;2.70;;
45909;SDS011;31622;55.416;37.840;2022-07-12T02:22:04;3.47;;;2.45;;
45909;SDS011;31622;55.416;37.840;2022-07-12T02:24:29;3.90;;;2.72;;
45909;SDS011;31622;55.416;37.840;2022-07-12T02:26:55;4.68;;;2.38;;
45909;SDS011;31622;55.416;37.840;2022-07-12T02:29:21;3.13;;;2.55;;
45909;SDS011;31622;55.416;37.840;2022-07-12T02:31:46;6.97;;;2.75;;
45909;SDS011;31622;55.416;37.840;2022-07-12T02:34:12;3.90;;;2.72;;
45909;SDS011;31622;55.416;37.840;2022-07-12T02:36:38;4.70;;;2.83;;
45909;SDS011;31622;55.416;37.840;2022-07-12T02:39:03;3.97;;;2.72;;
45909;SDS011;31622;55.416;37.840;2022-07-12T02:41:30;4.40;;;2.85;;
45909;SDS011;31622;55.416;37.840;2022-07-12T02:43:56;4.22;;;2.60;;
45909;SDS011;31622;55.416;37.840;2022-07-12T02:46:22;7.30;;;2.80;;
45909;SDS011;31622;55.416;37.840;2022-07-12T02:48:48;3.58;;;2.45;;
45909;SDS011;31622;55.416;37.840;2022-07-12T02:51:13;4.43;;;2.60;;
45909;SDS011;31622;55.416;37.840;2022-07-12T02:53:39;5.60;;;2.95;;
45909;SDS011;31622;55.416;37.840;2022-07-12T02:56:05;4.25;;;2.75;;
45909;SDS011;31622;55.416;37.840;2022-07-12T02:58:30;2.88;;;2.55;;
45909;SDS011;31622;55.416;37.840;2022-07-12T03:00:56;4.00;;;2.70;;
45909;SDS011;31622;55.416;37.840;2022-07-12T03:03:22;5.63;;;3.10;;
45909;SDS011;31622;55.416;37.840;2022-07-12T03:05:47;4.10;;;3.15;;
45909;SDS011;31622;55.416;37.840;2022-07-12T03:08:13;5.95;;;2.60;;
45909;SDS011;31622;55.416;37.840;2022-07-12T03:10:39;4.25;;;2.97;;
45909;SDS011;31622;55.416;37.840;2022-07-12T03:13:05;3.33;;;2.70;;
45909;SDS011;31622;55.416;37.840;2022-07-12T03:15:30;4.57;;;3.03;;
45909;SDS011;31622;55.416;37.840;2022-07-12T03:17:57;4.07;;;3.17;;
45909;SDS011;31622;55.416;37.840;2022-07-12T03:20:23;8.77;;;3.55;;
45909;SDS011;31622;55.416;37.840;2022-07-12T03:22:49;6.32;;;3.00;;
45909;SDS011;31622;55.416;37.840;2022-07-12T03:25:17;3.53;;;2.67;;
45909;SDS011;31622;55.416;37.840;2022-07-12T03:27:43;8.02;;;3.75;;
45909;SDS011;31622;55.416;37.840;2022-07-12T03:30:09;8.68;;;2.67;;
45909;SDS011;31622;55.416;37.840;2022-07-12T03:32:35;8.80;;;2.85;;
45909;SDS011;31622;55.416;37.840;2022-07-12T03:35:05;6.68;;;3.13;;
45909;SDS011;31622;55.416;37.840;2022-07-12T03:40:09;4.18;;;2.70;;
45909;SDS011;31622;55.416;37.840;2022-07-12T03:42:35;4.88;;;3.20;;
45909;SDS011;31622;55.416;37.840;2022-07-12T03:45:01;4.28;;;2.75;;
45909;SDS011;31622;55.416;37.840;2022-07-12T03:47:27;8.95;;;3.15;;
45909;SDS011;31622;55.416;37.840;2022-07-12T03:49:53;7.55;;;3.40;;
45909;SDS011;31622;55.416;37.840;2022-07-12T03:52:18;5.13;;;3.15;;
45909;SDS011;31622;55.416;37.840;2022-07-12T03:54:44;8.15;;;3.10;;
45909;SDS011;31622;55.416;37.840;2022-07-12T03:57:09;4.10;;;2.90;;
45909;SDS011;31622;55.416;37.840;2022-07-12T03:59:41;5.00;;;3.00;;
45909;SDS011;31622;55.416;37.840;2022-07-12T04:02:08;3.13;;;2.78;;
45909;SDS011;31622;55.416;37.840;2022-07-12T04:04:34;4.55;;;3.00;;
45909;SDS011;31622;55.416;37.840;2022-07-12T04:06:59;7.13;;;3.75;;
45909;SDS011;31622;55.416;37.840;2022-07-12T04:09:25;4.90;;;3.20;;
45909;SDS011;31622;55.416;37.840;2022-07-12T04:11:51;4.72;;;2.83;;
45909;SDS011;31622;55.416;37.840;2022-07-12T04:14:16;6.18;;;3.30;;
45909;SDS011;31622;55.416;37.840;2022-07-12T04:16:42;6.40;;;4.13;;
45909;SDS011;31622;55.416;37.840;2022-07-12T04:19:08;5.18;;;3.33;;
45909;SDS011;31622;55.416;37.840;2022-07-12T04:21:34;4.85;;;4.07;;
45909;SDS011;31622;55.416;37.840;2022-07-12T04:24:00;6.50;;;3.10;;
45909;SDS011;31622;55.416;37.840;2022-07-12T04:26:26;6.22;;;3.33;;
45909;SDS011;31622;55.416;37.840;2022-07-12T04:28:52;6.65;;;3.40;;
45909;SDS011;31622;55.416;37.840;2022-07-12T04:31:17;6.40;;;3.45;;
45909;SDS011;31622;55.416;37.840;2022-07-12T04:33:43;4.80;;;3.67;;
45909;SDS011;31622;55.416;37.840;2022-07-12T04:36:10;6.15;;;3.80;;
45909;SDS011;31622;55.416;37.840;2022-07-12T04:38:35;9.73;;;3.97;;
45909;SDS011;31622;55.416;37.840;2022-07-12T04:41:01;8.77;;;3.83;;
45909;SDS011;31622;55.416;37.840;2022-07-12T04:43:26;9.55;;;3.95;;
45909;SDS011;31622;55.416;37.840;2022-07-12T04:45:52;5.22;;;3.65;;
45909;SDS011;31622;55.416;37.840;2022-07-12T04:48:18;7.05;;;4.00;;
45909;SDS011;31622;55.416;37.840;2022-07-12T04:50:44;6.47;;;3.65;;
45909;SDS011;31622;55.416;37.840;2022-07-12T04:53:09;13.35;;;4.63;;
45909;SDS011;31622;55.416;37.840;2022-07-12T04:55:35;9.95;;;4.30;;
45909;SDS011;31622;55.416;37.840;2022-07-12T04:58:01;9.57;;;4.00;;
45909;SDS011;31622;55.416;37.840;2022-07-12T05:00:27;8.82;;;3.88;;
45909;SDS011;31622;55.416;37.840;2022-07-12T05:02:52;6.68;;;3.85;;
45909;SDS011;31622;55.416;37.840;2022-07-12T05:05:19;6.70;;;4.30;;
45909;SDS011;31622;55.416;37.840;2022-07-12T05:07:44;5.28;;;3.42;;
45909;SDS011;31622;55.416;37.840;2022-07-12T05:10:10;5.13;;;3.67;;
45909;SDS011;31622;55.416;37.840;2022-07-12T05:12:36;5.38;;;3.80;;
45909;SDS011;31622;55.416;37.840;2022-07-12T05:15:05;4.80;;;3.28;;
45909;SDS011;31622;55.416;37.840;2022-07-12T05:17:32;4.40;;;3.80;;
45909;SDS011;31622;55.416;37.840;2022-07-12T05:19:58;9.73;;;3.88;;
45909;SDS011;31622;55.416;37.840;2022-07-12T05:22:24;6.28;;;3.60;;
45909;SDS011;31622;55.416;37.840;2022-07-12T05:24:49;6.75;;;3.72;;
45909;SDS011;31622;55.416;37.840;2022-07-12T05:27:15;7.47;;;3.95;;
45909;SDS011;31622;55.416;37.840;2022-07-12T05:29:41;6.55;;;4.13;;
45909;SDS011;31622;55.416;37.840;2022-07-12T05:32:06;5.32;;;3.45;;
45909;SDS011;31622;55.416;37.840;2022-07-12T05:34:32;8.13;;;3.97;;
45909;SDS011;31622;55.416;37.840;2022-07-12T05:36:58;5.15;;;3.42;;
45909;SDS011;31622;55.416;37.840;2022-07-12T05:39:24;6.13;;;3.70;;
45909;SDS011;31622;55.416;37.840;2022-07-12T05:41:49;5.95;;;3.88;;
45909;SDS011;31622;55.416;37.840;2022-07-12T05:44:15;7.95;;;3.60;;
45909;SDS011;31622;55.416;37.840;2022-07-12T05:46:42;6.80;;;3.72;;
45909;SDS011;31622;55.416;37.840;2022-07-12T05:49:08;8.23;;;4.00;;
45909;SDS011;31622;55.416;37.840;2022-07-12T05:51:34;6.55;;;3.47;;
45909;SDS011;31622;55.416;37.840;2022-07-12T05:54:18;6.43;;;3.55;;
45909;SDS011;31622;55.416;37.840;2022-07-12T05:56:43;4.57;;;3.75;;
45909;SDS011;31622;55.416;37.840;2022-07-12T05:59:09;7.35;;;3.83;;
45909;SDS011;31622;55.416;37.840;2022-07-12T06:01:35;4.75;;;3.55;;
45909;SDS011;31622;55.416;37.840;2022-07-12T06:04:00;5.55;;;3.75;;
45909;SDS011;31622;55.416;37.840;2022-07-12T06:06:26;5.85;;;3.67;;
45909;SDS011;31622;55.416;37.840;2022-07-12T06:08:52;6.25;;;3.88;;
45909;SDS011;31622;55.416;37.840;2022-07-12T06:11:18;5.25;;;3.50;;
45909;SDS011;31622;55.416;37.840;2022-07-12T06:13:44;7.90;;;3.53;;
45909;SDS011;31622;55.416;37.840;2022-07-12T06:16:09;4.38;;;3.50;;
45909;SDS011;31622;55.416;37.840;2022-07-12T06:18:36;4.78;;;3.50;;
45909;SDS011;31622;55.416;37.840;2022-07-12T06:21:03;7.32;;;3.40;;
45909;SDS011;31622;55.416;37.840;2022-07-12T06:23:29;5.50;;;3.40;;
45909;SDS011;31622;55.416;37.840;2022-07-12T06:25:55;7.47;;;3.85;;
45909;SDS011;31622;55.416;37.840;2022-07-12T06:28:21;3.55;;;2.92;;
45909;SDS011;31622;55.416;37.840;2022-07-12T06:30:46;4.45;;;3.55;;
45909;SDS011;31622;55.416;37.840;2022-07-12T06:33:12;5.55;;;3.25;;
45909;SDS011;31622;55.416;37.840;2022-07-12T06:35:38;6.15;;;3.50;;
45909;SDS011;31622;55.416;37.840;2022-07-12T06:38:03;5.25;;;3.58;;
45909;SDS011;31622;55.416;37.840;2022-07-12T06:40:29;7.72;;;3.28;;
45909;SDS011;31622;55.416;37.840;2022-07-12T06:42:55;6.70;;;3.45;;
45909;SDS011;31622;55.416;37.840;2022-07-12T06:45:21;7.95;;;3.17;;
45909;SDS011;31622;55.416;37.840;2022-07-12T06:47:46;5.25;;;2.88;;
45909;SDS011;31622;55.416;37.840;2022-07-12T06:50:12;4.32;;;2.47;;
45909;SDS011;31622;55.416;37.840;2022-07-12T06:52:38;4.32;;;3.17;;
45909;SDS011;31622;55.416;37.840;2022-07-12T06:55:03;7.03;;;3.35;;
45909;SDS011;31622;55.416;37.840;2022-07-12T06:57:29;3.75;;;2.58;;
45909;SDS011;31622;55.416;37.840;2022-07-12T06:59:55;6.35;;;2.90;;
45909;SDS011;31622;55.416;37.840;2022-07-12T07:02:21;6.13;;;3.10;;
45909;SDS011;31622;55.416;37.840;2022-07-12T07:04:47;5.78;;;2.78;;
45909;SDS011;31622;55.416;37.840;2022-07-12T07:07:13;5.22;;;2.92;;
45909;SDS011;31622;55.416;37.840;2022-07-12T07:09:39;4.90;;;2.65;;
45909;SDS011;31622;55.416;37.840;2022-07-12T07:12:05;5.80;;;2.63;;
45909;SDS011;31622;55.416;37.840;2022-07-12T07:14:31;5.75;;;2.97;;
45909;SDS011;31622;55.416;37.840;2022-07-12T07:16:56;5.97;;;2.95;;
45909;SDS011;31622;55.416;37.840;2022-07-12T07:19:22;6.70;;;2.60;;
45909;SDS011;31622;55.416;37.840;2022-07-12T07:21:50;5.07;;;2.95;;
45909;SDS011;31622;55.416;37.840;2022-07-12T07:24:16;3.38;;;2.67;;
45909;SDS011;31622;55.416;37.840;2022-07-12T07:26:41;4.43;;;2.60;;
45909;SDS011;31622;55.416;37.840;2022-07-12T07:29:07;5.28;;;2.90;;
45909;SDS011;31622;55.416;37.840;2022-07-12T07:32:02;6.32;;;2.50;;
45909;SDS011;31622;55.416;37.840;2022-07-12T07:34:28;4.40;;;3.03;;
45909;SDS011;31622;55.416;37.840;2022-07-12T07:36:54;4.05;;;2.58;;
45909;SDS011;31622;55.416;37.840;2022-07-12T07:39:20;6.78;;;2.80;;
45909;SDS011;31622;55.416;37.840;2022-07-12T07:41:45;5.55;;;2.95;;
45909;SDS011;31622;55.416;37.840;2022-07-12T07:44:11;5.85;;;3.17;;
45909;SDS011;31622;55.416;37.840;2022-07-12T07:46:36;6.13;;;2.70;;
45909;SDS011;31622;55.416;37.840;2022-07-12T07:49:02;6.63;;;2.60;;
45909;SDS011;31622;55.416;37.840;2022-07-12T07:51:28;4.28;;;2.78;;
45909;SDS011;31622;55.416;37.840;2022-07-12T07:53:55;5.85;;;2.50;;
45909;SDS011;31622;55.416;37.840;2022-07-12T07:56:21;5.82;;;3.03;;
45909;SDS011;31622;55.416;37.840;2022-07-12T07:58:46;5.80;;;2.95;;
45909;SDS011;31622;55.416;37.840;2022-07-12T08:01:12;4.25;;;2.65;;
45909;SDS011;31622;55.416;37.840;2022-07-12T08:03:38;7.13;;;3.03;;
45909;SDS011;31622;55.416;37.840;2022-07-12T08:06:04;4.55;;;2.83;;
45909;SDS011;31622;55.416;37.840;2022-07-12T08:08:30;4.63;;;2.70;;
45909;SDS011;31622;55.416;37.840;2022-07-12T08:10:56;4.47;;;2.67;;
45909;SDS011;31622;55.416;37.840;2022-07-12T08:13:21;7.78;;;3.60;;
45909;SDS011;31622;55.416;37.840;2022-07-12T08:15:47;6.82;;;3.05;;
45909;SDS011;31622;55.416;37.840;2022-07-12T08:18:13;5.25;;;2.90;;
45909;SDS011;31622;55.416;37.840;2022-07-12T08:20:39;5.07;;;2.88;;
45909;SDS011;31622;55.416;37.840;2022-07-12T08:23:04;3.97;;;2.70;;
45909;SDS011;31622;55.416;37.840;2022-07-12T08:25:30;5.10;;;3.00;;
45909;SDS011;31622;55.416;37.840;2022-07-12T08:27:56;4.47;;;2.80;;
45909;SDS011;31622;55.416;37.840;2022-07-12T08:30:22;4.05;;;2.90;;
45909;SDS011;31622;55.416;37.840;2022-07-12T08:32:47;4.65;;;3.30;;
45909;SDS011;31622;55.416;37.840;2022-07-12T08:35:13;6.28;;;2.60;;
45909;SDS011;31622;55.416;37.840;2022-07-12T08:37:40;5.32;;;3.03;;
45909;SDS011;31622;55.416;37.840;2022-07-12T08:40:06;4.18;;;2.88;;
45909;SDS011;31622;55.416;37.840;2022-07-12T08:42:32;4.10;;;2.95;;
45909;SDS011;31622;55.416;37.840;2022-07-12T08:44:59;10.48;;;7.28;;
45909;SDS011;31622;55.416;37.840;2022-07-12T08:47:24;18.80;;;9.20;;
45909;SDS011;31622;55.416;37.840;2022-07-12T08:50:12;25.60;;;9.27;;
45909;SDS011;31622;55.416;37.840;2022-07-12T08:52:43;23.13;;;9.23;;
45909;SDS011;31622;55.416;37.840;2022-07-12T08:58:04;15.07;;;5.38;;
45909;SDS011;31622;55.416;37.840;2022-07-12T09:00:31;9.82;;;5.05;;
45909;SDS011;31622;55.416;37.840;2022-07-12T09:02:58;9.05;;;4.75;;
45909;SDS011;31622;55.416;37.840;2022-07-12T09:05:26;5.72;;;3.30;;
45909;SDS011;31622;55.416;37.840;2022-07-12T09:08:08;6.55;;;3.80;;
45909;SDS011;31622;55.416;37.840;2022-07-12T09:10:35;5.63;;;3.13;;
45909;SDS011;31622;55.416;37.840;2022-07-12T09:13:44;4.47;;;3.00;;
45909;SDS011;31622;55.416;37.840;2022-07-12T09:16:15;6.53;;;3.03;;
45909;SDS011;31622;55.416;37.840;2022-07-12T09:18:42;8.13;;;3.20;;
45909;SDS011;31622;55.416;37.840;2022-07-12T09:21:08;5.90;;;3.33;;
45909;SDS011;31622;55.416;37.840;2022-07-12T09:23:34;6.30;;;2.90;;
45909;SDS011;31622;55.416;37.840;2022-07-12T09:26:02;4.78;;;2.95;;
45909;SDS011;31622;55.416;37.840;2022-07-12T09:28:33;6.40;;;2.70;;
45909;SDS011;31622;55.416;37.840;2022-07-12T09:30:58;6.18;;;2.25;;
45909;SDS011;31622;55.416;37.840;2022-07-12T09:33:24;4.95;;;2.30;;
45909;SDS011;31622;55.416;37.840;2022-07-12T09:36:08;4.75;;;2.70;;
45909;SDS011;31622;55.416;37.840;2022-07-12T09:38:49;8.23;;;3.05;;
45909;SDS011;31622;55.416;37.840;2022-07-12T09:41:20;3.15;;;2.17;;
45909;SDS011;31622;55.416;37.840;2022-07-12T09:43:46;3.33;;;2.33;;
45909;SDS011;31622;55.416;37.840;2022-07-12T09:46:15;6.22;;;2.47;;
45909;SDS011;31622;55.416;37.840;2022-07-12T09:48:42;5.65;;;1.67;;
45909;SDS011;31622;55.416;37.840;2022-07-12T09:51:10;2.63;;;1.65;;
45909;SDS011;31622;55.416;37.840;2022-07-12T09:53:43;4.07;;;1.67;;
45909;SDS011;31622;55.416;37.840;2022-07-12T09:56:13;2.13;;;1.40;;
45909;SDS011;31622;55.416;37.840;2022-07-12T09:58:56;3.05;;;1.30;;
45909;SDS011;31622;55.416;37.840;2022-07-12T10:01:23;3.92;;;1.15;;
45909;SDS011;31622;55.416;37.840;2022-07-12T10:03:52;6.68;;;1.20;;
45909;SDS011;31622;55.416;37.840;2022-07-12T10:08:49;2.25;;;1.20;;
45909;SDS011;31622;55.416;37.840;2022-07-12T10:11:15;2.20;;;0.90;;
45909;SDS011;31622;55.416;37.840;2022-07-12T10:13:41;1.42;;;0.88;;
45909;SDS011;31622;55.416;37.840;2022-07-12T10:16:06;3.10;;;1.00;;
45909;SDS011;31622;55.416;37.840;2022-07-12T10:18:34;2.35;;;0.95;;
45909;SDS011;31622;55.416;37.840;2022-07-12T10:20:59;1.40;;;0.90;;
45909;SDS011;31622;55.416;37.840;2022-07-12T10:25:59;4.85;;;0.80;;
45909;SDS011;31622;55.416;37.840;2022-07-12T10:31:39;2.72;;;0.90;;
45909;SDS011;31622;55.416;37.840;2022-07-12T10:34:09;1.63;;;0.93;;
45909;SDS011;31622;55.416;37.840;2022-07-12T10:39:20;2.13;;;1.00;;
45909;SDS011;31622;55.416;37.840;2022-07-12T10:47:03;1.75;;;0.80;;
45909;SDS011;31622;55.416;37.840;2022-07-12T10:49:30;1.83;;;0.85;;
45909;SDS011;31622;55.416;37.840;2022-07-12T10:54:35;1.52;;;0.82;;
45909;SDS011;31622;55.416;37.840;2022-07-12T11:00:12;2.20;;;0.80;;
45909;SDS011;31622;55.416;37.840;2022-07-12T11:02:39;1.23;;;0.60;;
45909;SDS011;31622;55.416;37.840;2022-07-12T11:05:05;2.65;;;0.93;;
45909;SDS011;31622;55.416;37.840;2022-07-12T11:07:31;2.25;;;0.70;;
45909;SDS011;31622;55.416;37.840;2022-07-12T11:09:57;2.85;;;0.82;;
45909;SDS011;31622;55.416;37.840;2022-07-12T11:12:29;2.83;;;1.00;;
45909;SDS011;31622;55.416;37.840;2022-07-12T11:14:56;1.23;;;0.73;;
45909;SDS011;31622;55.416;37.840;2022-07-12T11:17:26;4.63;;;1.00;;
45909;SDS011;31622;55.416;37.840;2022-07-12T11:20:06;1.70;;;0.70;;
45909;SDS011;31622;55.416;37.840;2022-07-12T11:22:36;1.05;;;0.80;;
45909;SDS011;31622;55.416;37.840;2022-07-12T11:25:04;2.30;;;0.93;;
45909;SDS011;31622;55.416;37.840;2022-07-12T11:27:31;1.40;;;0.95;;
45909;SDS011;31622;55.416;37.840;2022-07-12T11:29:59;3.85;;;1.02;;
45909;SDS011;31622;55.416;37.840;2022-07-12T11:32:35;1.83;;;0.93;;
45909;SDS011;31622;55.416;37.840;2022-07-12T11:35:03;1.63;;;0.82;;
45909;SDS011;31622;55.416;37.840;2022-07-12T11:37:29;1.40;;;0.90;;
45909;SDS011;31622;55.416;37.840;2022-07-12T11:39:56;4.18;;;0.70;;
45909;SDS011;31622;55.416;37.840;2022-07-12T11:42:21;2.47;;;0.88;;
45909;SDS011;31622;55.416;37.840;2022-07-12T11:44:48;2.95;;;1.00;;
45909;SDS011;31622;55.416;37.840;2022-07-12T11:47:16;2.33;;;0.90;;
45909;SDS011;31622;55.416;37.840;2022-07-12T11:49:44;2.22;;;0.82;;
45909;SDS011;31622;55.416;37.840;2022-07-12T11:52:17;1.45;;;0.85;;
45909;SDS011;31622;55.416;37.840;2022-07-12T11:54:44;1.75;;;0.80;;
45909;SDS011;31622;55.416;37.840;2022-07-12T11:57:11;1.35;;;0.70;;
45909;SDS011;31622;55.416;37.840;2022-07-12T11:59:37;2.00;;;0.80;;
45909;SDS011;31622;55.416;37.840;2022-07-12T12:02:04;2.25;;;0.90;;
45909;SDS011;31622;55.416;37.840;2022-07-12T12:04:31;1.27;;;0.65;;
45909;SDS011;31622;55.416;37.840;2022-07-12T12:06:57;1.30;;;0.80;;
45909;SDS011;31622;55.416;37.840;2022-07-12T12:09:22;1.00;;;0.70;;
45909;SDS011;31622;55.416;37.840;2022-07-12T12:11:48;2.42;;;0.90;;
45909;SDS011;31622;55.416;37.840;2022-07-12T12:14:13;1.90;;;0.68;;
45909;SDS011;31622;55.416;37.840;2022-07-12T12:16:39;3.50;;;1.38;;
45909;SDS011;31622;55.416;37.840;2022-07-12T12:19:10;1.60;;;0.80;;
45909;SDS011;31622;55.416;37.840;2022-07-12T12:21:35;1.40;;;0.80;;
45909;SDS011;31622;55.416;37.840;2022-07-12T12:24:08;2.85;;;1.52;;
45909;SDS011;31622;55.416;37.840;2022-07-12T12:26:35;4.18;;;1.33;;
45909;SDS011;31622;55.416;37.840;2022-07-12T12:29:02;2.35;;;1.17;;
45909;SDS011;31622;55.416;37.840;2022-07-12T12:31:27;2.35;;;1.20;;
45909;SDS011;31622;55.416;37.840;2022-07-12T12:33:54;1.83;;;0.90;;
45909;SDS011;31622;55.416;37.840;2022-07-12T12:36:35;1.88;;;0.90;;
45909;SDS011;31622;55.416;37.840;2022-07-12T12:39:01;1.80;;;1.00;;
45909;SDS011;31622;55.416;37.840;2022-07-12T12:41:28;4.57;;;1.20;;
45909;SDS011;31622;55.416;37.840;2022-07-12T12:44:02;2.05;;;1.00;;
45909;SDS011;31622;55.416;37.840;2022-07-12T12:46:45;3.47;;;1.10;;
45909;SDS011;31622;55.416;37.840;2022-07-12T12:49:12;2.65;;;1.10;;
45909;SDS011;31622;55.416;37.840;2022-07-12T12:51:50;2.80;;;0.90;;
45909;SDS011;31622;55.416;37.840;2022-07-12T12:54:31;1.70;;;0.90;;
45909;SDS011;31622;55.416;37.840;2022-07-12T12:56:58;1.60;;;0.73;;
45909;SDS011;31622;55.416;37.840;2022-07-12T12:59:23;1.23;;;0.60;;
45909;SDS011;31622;55.416;37.840;2022-07-12T13:01:49;1.20;;;0.52;;
45909;SDS011;31622;55.416;37.840;2022-07-12T13:04:14;1.33;;;0.70;;
45909;SDS011;31622;55.416;37.840;2022-07-12T13:06:40;1.75;;;0.47;;
45909;SDS011;31622;55.416;37.840;2022-07-12T13:09:05;3.47;;;0.70;;
45909;SDS011;31622;55.416;37.840;2022-07-12T13:11:31;1.50;;;0.60;;
45909;SDS011;31622;55.416;37.840;2022-07-12T13:13:58;0.93;;;0.65;;
45909;SDS011;31622;55.416;37.840;2022-07-12T13:16:25;2.40;;;0.57;;
45909;SDS011;31622;55.416;37.840;2022-07-12T13:18:51;1.13;;;0.50;;
45909;SDS011;31622;55.416;37.840;2022-07-12T13:21:16;3.40;;;0.68;;
45909;SDS011;31622;55.416;37.840;2022-07-12T13:23:42;0.90;;;0.60;;
45909;SDS011;31622;55.416;37.840;2022-07-12T13:26:09;0.82;;;0.57;;
45909;SDS011;31622;55.416;37.840;2022-07-12T13:28:35;0.75;;;0.45;;
45909;SDS011;31622;55.416;37.840;2022-07-12T13:31:00;1.27;;;0.70;;
45909;SDS011;31622;55.416;37.840;2022-07-12T13:33:26;2.38;;;0.77;;
45909;SDS011;31622;55.416;37.840;2022-07-12T13:35:52;2.33;;;0.80;;
45909;SDS011;31622;55.416;37.840;2022-07-12T13:38:17;1.70;;;0.80;;
45909;SDS011;31622;55.416;37.840;2022-07-12T13:40:43;1.00;;;0.70;;
45909;SDS011;31622;55.416;37.840;2022-07-12T13:43:09;1.35;;;0.70;;
45909;SDS011;31622;55.416;37.840;2022-07-12T13:45:34;2.95;;;0.80;;
45909;SDS011;31622;55.416;37.840;2022-07-12T13:48:00;1.40;;;0.80;;
45909;SDS011;31622;55.416;37.840;2022-07-12T13:50:27;2.47;;;0.80;;
45909;SDS011;31622;55.416;37.840;2022-07-12T13:52:53;1.27;;;0.70;;
45909;SDS011;31622;55.416;37.840;2022-07-12T13:55:18;2.08;;;0.70;;
45909;SDS011;31622;55.416;37.840;2022-07-12T13:57:45;0.95;;;0.63;;
45909;SDS011;31622;55.416;37.840;2022-07-12T14:00:13;2.50;;;0.68;;
45909;SDS011;31622;55.416;37.840;2022-07-12T14:02:41;1.38;;;0.70;;
45909;SDS011;31622;55.416;37.840;2022-07-12T14:05:08;3.53;;;0.70;;
45909;SDS011;31622;55.416;37.840;2022-07-12T14:07:38;3.60;;;0.90;;
45909;SDS011;31622;55.416;37.840;2022-07-12T14:10:05;1.58;;;1.08;;
45909;SDS011;31622;55.416;37.840;2022-07-12T14:12:31;1.27;;;0.80;;
45909;SDS011;31622;55.416;37.840;2022-07-12T14:14:57;1.88;;;0.90;;
45909;SDS011;31622;55.416;37.840;2022-07-12T14:17:39;1.25;;;0.88;;
45909;SDS011;31622;55.416;37.840;2022-07-12T14:20:05;1.98;;;1.25;;
45909;SDS011;31622;55.416;37.840;2022-07-12T14:22:31;1.60;;;1.08;;
45909;SDS011;31622;55.416;37.840;2022-07-12T14:24:57;2.78;;;1.00;;
45909;SDS011;31622;55.416;37.840;2022-07-12T14:27:23;1.40;;;1.00;;
45909;SDS011;31622;55.416;37.840;2022-07-12T14:29:49;2.28;;;0.80;;
45909;SDS011;31622;55.416;37.840;2022-07-12T14:32:14;2.25;;;1.00;;
45909;SDS011;31622;55.416;37.840;2022-07-12T14:34:40;1.73;;;1.00;;
45909;SDS011;31622;55.416;37.840;2022-07-12T14:37:06;1.98;;;1.10;;
45909;SDS011;31622;55.416;37.840;2022-07-12T14:39:32;1.77;;;1.23;;
45909;SDS011;31622;55.416;37.840;2022-07-12T14:41:59;2.53;;;1.35;;
45909;SDS011;31622;55.416;37.840;2022-07-12T14:44:24;2.53;;;1.30;;
45909;SDS011;31622;55.416;37.840;2022-07-12T14:46:51;2.35;;;0.98;;
45909;SDS011;31622;55.416;37.840;2022-07-12T14:49:18;2.35;;;1.00;;
45909;SDS011;31622;55.416;37.840;2022-07-12T14:51:45;2.33;;;1.10;;
45909;SDS011;31622;55.416;37.840;2022-07-12T14:54:11;1.95;;;0.90;;
45909;SDS011;31622;55.416;37.840;2022-07-12T14:56:36;1.85;;;1.20;;
45909;SDS011;31622;55.416;37.840;2022-07-12T14:59:02;2.20;;;1.08;;